Iron Springs, Arizona
Current Conditions -  °F | °C
As of 11:53 PM on Sunday 23 Nov 2014 (Local Time) from KPRC Reporting Station
Clear Clear  
Wind Chill: 25°   Ceiling: Unl
Heat Index: 30°   Visibility: 10mi
Dew Point: -2°   Wind: 5mph
Humidity: 25%   Direction: 230°SW
Pressure: 30.23"   Gusts: NA
Location:  34.58°N, 112.57°W
Report Text: KPRC 240653Z AUTO 23004KT 10SM CLR M01/M19 A3023 RMK AO2 SLP220 T10111189 401111017
Loading
Personal Weather Stations






























Interactive Weather Map New forecast layout! Learn more

10-Day Weather Forecast

Advertisements
Track Severe Weather on mobile